createdAt,value
2023-06-09T00:05:27.003Z,20.93
2023-06-09T00:07:55.040Z,20.91
2023-06-09T00:10:21.791Z,20.94
2023-06-09T00:12:48.630Z,20.97
2023-06-09T00:15:16.418Z,20.94
2023-06-09T00:17:43.700Z,20.88
2023-06-09T00:20:11.014Z,20.86
2023-06-09T00:22:49.715Z,20.84
2023-06-09T00:29:34.972Z,20.75
2023-06-09T00:32:01.828Z,20.74
2023-06-09T00:34:28.586Z,20.71
2023-06-09T00:36:55.397Z,20.68
2023-06-09T00:43:42.142Z,20.68
2023-06-09T00:46:09.556Z,20.71
2023-06-09T00:48:37.680Z,20.70
2023-06-09T00:51:04.592Z,20.69
2023-06-09T00:53:31.998Z,20.66
2023-06-09T00:55:58.848Z,20.64
2023-06-09T00:58:25.970Z,20.68
2023-06-09T01:00:52.847Z,20.70
2023-06-09T01:07:56.540Z,20.62
2023-06-09T01:10:41.933Z,20.58
2023-06-09T01:13:29.009Z,20.52
2023-06-09T01:16:06.890Z,20.48
2023-06-09T01:18:36.911Z,20.47
2023-06-09T01:21:07.815Z,20.47
2023-06-09T01:23:46.277Z,20.50
2023-06-09T01:26:15.517Z,20.51
2023-06-09T01:28:44.485Z,20.49
2023-06-09T01:31:12.975Z,20.45
2023-06-09T01:33:40.708Z,20.41
2023-06-09T01:36:07.986Z,20.40
2023-06-09T01:38:34.836Z,20.41
2023-06-09T01:41:01.732Z,20.42
2023-06-09T01:43:28.572Z,20.45
2023-06-09T01:45:57.082Z,20.45
2023-06-09T01:48:42.522Z,20.47
2023-06-09T01:51:23.586Z,20.48
2023-06-09T01:53:59.981Z,20.49
2023-06-09T01:56:36.008Z,20.53
2023-06-09T01:59:09.628Z,20.57
2023-06-09T02:05:58.562Z,20.73
2023-06-09T02:08:29.815Z,20.75
2023-06-09T02:10:56.939Z,20.74
2023-06-09T02:13:24.268Z,20.75
2023-06-09T02:15:51.298Z,20.76
2023-06-09T02:18:22.859Z,20.76
2023-06-09T02:20:50.880Z,20.74
2023-06-09T02:23:25.052Z,20.69
2023-06-09T02:25:52.321Z,20.63
2023-06-09T02:28:19.319Z,20.60
2023-06-09T02:30:46.946Z,20.65
2023-06-09T02:37:30.004Z,20.58
2023-06-09T02:39:56.842Z,20.55
2023-06-09T02:42:23.680Z,20.51
2023-06-09T02:44:50.475Z,20.48
2023-06-09T02:47:17.684Z,20.48
2023-06-09T02:49:44.749Z,20.47
2023-06-09T02:56:25.438Z,20.48
2023-06-09T02:58:54.455Z,20.47
2023-06-09T03:01:22.192Z,20.45
2023-06-09T03:03:51.018Z,20.42
2023-06-09T03:06:18.669Z,20.40
2023-06-09T03:08:45.676Z,20.40
2023-06-09T03:11:12.832Z,20.41
2023-06-09T03:13:39.920Z,20.41
2023-06-09T03:16:07.592Z,20.42
2023-06-09T03:22:50.054Z,20.55
2023-06-09T03:29:37.818Z,20.64
2023-06-09T03:32:04.996Z,20.64
2023-06-09T03:34:33.105Z,20.60
2023-06-09T03:37:02.283Z,20.53
2023-06-09T03:39:47.640Z,20.51
2023-06-09T03:42:17.369Z,20.48
2023-06-09T03:44:44.280Z,20.49
2023-06-09T03:47:11.107Z,20.51
2023-06-09T03:49:39.100Z,20.51
2023-06-09T03:52:07.623Z,20.52
2023-06-09T03:54:35.765Z,20.51
2023-06-09T03:57:02.935Z,20.48
2023-06-09T04:03:44.348Z,20.52
2023-06-09T04:06:11.290Z,20.56
2023-06-09T04:08:38.158Z,20.60
2023-06-09T04:11:04.995Z,20.65
2023-06-09T04:13:31.756Z,20.70
2023-06-09T04:15:58.922Z,20.72
2023-06-09T04:18:26.368Z,20.74
2023-06-09T04:25:27.167Z,20.77
2023-06-09T04:32:18.287Z,20.72
2023-06-09T04:34:49.718Z,20.73
2023-06-09T04:41:38.866Z,20.71
2023-06-09T04:44:07.538Z,20.73
2023-06-09T04:46:42.778Z,20.78
2023-06-09T04:49:14.662Z,20.81
2023-06-09T04:51:49.726Z,20.82
2023-06-09T04:54:30.654Z,20.80
2023-06-09T04:57:03.027Z,20.81
2023-06-09T04:59:31.200Z,20.86
2023-06-09T05:01:59.094Z,20.90
2023-06-09T05:04:27.124Z,20.96
2023-06-09T05:06:54.406Z,21.03
2023-06-09T05:09:22.212Z,21.08
2023-06-09T05:11:49.005Z,21.13
2023-06-09T05:14:16.001Z,21.20
2023-06-09T05:16:47.262Z,21.32
2023-06-09T05:19:14.686Z,21.49
2023-06-09T05:26:01.850Z,22.17
2023-06-09T05:28:28.734Z,22.44
2023-06-09T05:30:56.222Z,22.70
2023-06-09T05:33:23.590Z,22.98
2023-06-09T05:35:51.093Z,23.25
2023-06-09T05:38:19.045Z,23.49
2023-06-09T05:40:45.925Z,23.70
2023-06-09T05:43:12.710Z,23.91
2023-06-09T05:45:39.561Z,24.08
2023-06-09T05:48:06.547Z,24.20
2023-06-09T05:50:33.505Z,24.29
2023-06-09T05:53:00.202Z,24.36
2023-06-09T05:55:27.142Z,24.43
2023-06-09T05:57:53.931Z,24.54
2023-06-09T06:00:20.990Z,24.65
2023-06-09T06:02:48.260Z,24.74
2023-06-09T06:05:15.243Z,24.85
2023-06-09T06:07:42.426Z,24.95
2023-06-09T06:10:09.787Z,25.01
2023-06-09T06:12:36.904Z,25.05
2023-06-09T06:15:03.995Z,25.09
2023-06-09T06:17:30.856Z,25.12
2023-06-09T06:19:58.653Z,25.16
2023-06-09T06:22:26.184Z,25.25
2023-06-09T06:24:52.905Z,25.36
2023-06-09T06:27:19.700Z,25.50
2023-06-09T06:29:46.698Z,25.64
2023-06-09T06:32:13.514Z,25.80
2023-06-09T06:34:40.436Z,25.94
2023-06-09T06:37:07.580Z,26.05
2023-06-09T06:39:34.770Z,26.16
2023-06-09T06:42:01.829Z,26.29
2023-06-09T06:44:33.202Z,26.39
2023-06-09T06:46:59.986Z,26.48
2023-06-09T06:49:26.760Z,26.59
2023-06-09T06:51:57.007Z,26.69
2023-06-09T06:54:23.808Z,26.79
2023-06-09T06:56:50.712Z,26.92
2023-06-09T06:59:17.555Z,27.07
2023-06-09T07:01:44.432Z,27.17
2023-06-09T07:04:11.302Z,27.27
2023-06-09T07:06:39.129Z,27.31
2023-06-09T07:09:06.291Z,27.38
2023-06-09T07:11:33.642Z,27.48
2023-06-09T07:14:00.626Z,27.57
2023-06-09T07:16:27.500Z,27.70
2023-06-09T07:18:54.329Z,27.83
2023-06-09T07:21:21.101Z,27.93
2023-06-09T07:23:47.950Z,27.99
2023-06-09T07:26:14.841Z,28.02
2023-06-09T07:28:41.705Z,28.00
2023-06-09T07:31:10.883Z,28.01
2023-06-09T07:33:38.898Z,28.07
2023-06-09T07:36:05.949Z,28.10
2023-06-09T07:38:32.659Z,28.16
2023-06-09T07:40:59.457Z,28.28
2023-06-09T07:43:26.890Z,28.43
2023-06-09T07:45:53.871Z,28.64
2023-06-09T07:48:20.698Z,28.84
2023-06-09T07:51:00.807Z,29.02
2023-06-09T07:53:29.095Z,29.24
2023-06-09T07:55:56.856Z,29.43
2023-06-09T07:58:23.620Z,29.57
2023-06-09T08:00:52.332Z,29.66
2023-06-09T08:03:19.545Z,29.81
2023-06-09T08:05:47.769Z,29.97
2023-06-09T08:08:16.601Z,30.03
2023-06-09T08:10:43.556Z,30.02
2023-06-09T08:13:12.095Z,29.96
2023-06-09T08:15:39.382Z,29.86
2023-06-09T08:18:06.398Z,29.75
2023-06-09T08:20:33.702Z,29.65
2023-06-09T08:23:00.493Z,29.56
2023-06-09T08:25:27.892Z,29.60
2023-06-09T08:27:54.622Z,29.62
2023-06-09T08:30:21.384Z,29.60
2023-06-09T08:32:48.192Z,29.73
2023-06-09T08:35:15.112Z,29.86
2023-06-09T08:37:43.232Z,30.03
2023-06-09T08:40:10.962Z,30.24
2023-06-09T08:42:40.495Z,30.47
2023-06-09T08:45:09.431Z,30.49
2023-06-09T08:47:37.725Z,30.54
2023-06-09T08:50:08.419Z,30.65
2023-06-09T08:52:36.226Z,30.83
2023-06-09T08:55:05.254Z,31.05
2023-06-09T08:57:33.561Z,31.21
2023-06-09T09:00:00.471Z,31.42
2023-06-09T09:02:27.357Z,31.63
2023-06-09T09:04:54.996Z,31.72
2023-06-09T09:07:22.092Z,31.68
2023-06-09T09:09:48.901Z,31.59
2023-06-09T09:12:15.666Z,31.35
2023-06-09T09:14:46.408Z,31.14
2023-06-09T09:17:14.640Z,31.01
2023-06-09T09:19:47.016Z,30.89
2023-06-09T09:22:14.337Z,30.93
2023-06-09T09:24:44.499Z,30.92
2023-06-09T09:27:19.877Z,30.97
2023-06-09T09:29:47.931Z,31.17
2023-06-09T09:32:16.651Z,31.20
2023-06-09T09:34:46.445Z,31.19
2023-06-09T09:37:18.080Z,31.02
2023-06-09T09:39:49.716Z,30.88
2023-06-09T09:42:17.579Z,30.72
2023-06-09T09:44:50.416Z,30.59
2023-06-09T09:47:18.366Z,30.56
2023-06-09T09:50:00.304Z,30.51
2023-06-09T09:52:29.202Z,30.47
2023-06-09T09:54:57.679Z,30.46
2023-06-09T09:57:26.794Z,30.63
2023-06-09T09:59:54.032Z,30.80
2023-06-09T10:02:30.690Z,30.69
2023-06-09T10:05:04.950Z,30.65
2023-06-09T10:07:39.224Z,30.84
2023-06-09T10:10:09.872Z,30.98
2023-06-09T10:12:38.866Z,31.13
2023-06-09T10:15:09.917Z,31.07
2023-06-09T10:17:38.015Z,30.97
2023-06-09T10:20:06.425Z,30.96
2023-06-09T10:22:33.355Z,30.73
2023-06-09T10:25:00.635Z,30.59
2023-06-09T10:27:27.929Z,30.81
2023-06-09T10:29:54.790Z,31.03
2023-06-09T10:32:27.443Z,31.10
2023-06-09T10:34:57.632Z,31.28
2023-06-09T10:37:34.273Z,31.52
2023-06-09T10:40:26.738Z,31.46
2023-06-09T10:43:22.611Z,31.53
2023-06-09T10:45:57.409Z,31.78
2023-06-09T10:48:56.782Z,31.95
2023-06-09T10:51:26.560Z,32.09
2023-06-09T10:54:08.727Z,32.35
2023-06-09T10:56:36.265Z,32.46
2023-06-09T10:59:04.253Z,32.46
2023-06-09T11:01:34.127Z,32.49
2023-06-09T11:04:01.362Z,32.59
2023-06-09T11:06:28.205Z,32.71
2023-06-09T11:09:09.654Z,32.80
2023-06-09T11:11:53.588Z,32.93
2023-06-09T11:14:46.057Z,33.04
2023-06-09T11:17:32.106Z,33.19
2023-06-09T11:20:12.176Z,33.24
2023-06-09T11:22:42.682Z,33.18
2023-06-09T11:25:31.340Z,33.05
2023-06-09T11:27:58.361Z,32.94
2023-06-09T11:30:26.511Z,32.99
2023-06-09T11:33:04.679Z,33.13
2023-06-09T11:35:31.967Z,33.32
2023-06-09T11:38:04.303Z,33.39
2023-06-09T11:40:32.771Z,33.49
2023-06-09T11:43:01.308Z,33.64
2023-06-09T11:45:31.756Z,33.80
2023-06-09T11:48:04.481Z,33.95
2023-06-09T11:50:41.384Z,34.07
2023-06-09T11:53:11.070Z,34.16
2023-06-09T11:55:38.880Z,34.22
2023-06-09T11:58:10.001Z,34.33
2023-06-09T12:00:42.591Z,34.42
2023-06-09T12:03:11.798Z,34.44
2023-06-09T12:05:39.198Z,34.28
2023-06-09T12:08:12.851Z,33.99
2023-06-09T12:10:39.698Z,33.71
2023-06-09T12:13:07.529Z,33.51
2023-06-09T12:15:34.886Z,33.48
2023-06-09T12:18:03.602Z,33.58
2023-06-09T12:20:35.291Z,33.65
2023-06-09T12:23:04.725Z,33.70
2023-06-09T12:25:36.421Z,33.72
2023-06-09T12:28:16.432Z,33.77
2023-06-09T12:30:49.015Z,33.80
2023-06-09T12:33:19.776Z,33.83
2023-06-09T12:35:56.016Z,33.92
2023-06-09T12:38:29.971Z,33.99
2023-06-09T12:41:06.192Z,34.09
2023-06-09T12:43:52.923Z,34.10
2023-06-09T12:46:29.263Z,34.14
2023-06-09T12:49:05.074Z,34.26
2023-06-09T12:51:40.705Z,34.24
2023-06-09T12:54:08.989Z,33.97
2023-06-09T12:56:35.802Z,33.76
2023-06-09T12:59:03.782Z,33.81
2023-06-09T13:01:33.819Z,33.94
2023-06-09T13:04:00.850Z,34.07
2023-06-09T13:06:28.023Z,34.12
2023-06-09T13:08:57.054Z,34.19
2023-06-09T13:11:24.666Z,34.27
2023-06-09T13:13:53.185Z,34.38
2023-06-09T13:16:20.460Z,34.45
2023-06-09T13:18:47.484Z,34.54
2023-06-09T13:21:14.361Z,34.57
2023-06-09T13:23:41.179Z,34.64
2023-06-09T13:26:07.984Z,34.74
2023-06-09T13:28:34.860Z,34.81
2023-06-09T13:31:01.746Z,34.87
2023-06-09T13:33:28.790Z,34.88
2023-06-09T13:35:55.667Z,34.73
2023-06-09T13:38:22.543Z,34.60
2023-06-09T13:40:50.033Z,34.50
2023-06-09T13:43:17.948Z,34.41
2023-06-09T13:45:45.016Z,34.37
2023-06-09T13:48:12.587Z,34.21
2023-06-09T13:50:40.362Z,33.95
2023-06-09T13:53:07.452Z,33.70
2023-06-09T13:55:34.243Z,33.56
2023-06-09T13:58:01.076Z,33.44
2023-06-09T14:00:28.026Z,33.41
2023-06-09T14:02:55.082Z,33.47
2023-06-09T14:05:25.183Z,33.51
2023-06-09T14:07:52.144Z,33.57
2023-06-09T14:10:19.424Z,33.50
2023-06-09T14:12:49.052Z,33.51
2023-06-09T14:17:51.085Z,33.73
2023-06-09T14:20:21.930Z,33.64
2023-06-09T14:22:51.106Z,33.61
2023-06-09T14:25:23.169Z,33.64
2023-06-09T14:27:53.823Z,33.61
2023-06-09T14:30:22.566Z,33.55
2023-06-09T14:32:51.612Z,33.51
2023-06-09T14:35:26.343Z,33.46
2023-06-09T14:37:58.197Z,33.46
2023-06-09T14:40:26.328Z,33.31
2023-06-09T14:42:53.159Z,33.13
2023-06-09T14:45:22.134Z,33.06
2023-06-09T14:48:10.165Z,33.04
2023-06-09T14:50:49.223Z,33.06
2023-06-09T14:53:16.413Z,33.06
2023-06-09T14:55:48.022Z,33.02
2023-06-09T14:58:17.244Z,33.00
2023-06-09T15:04:59.624Z,32.95
2023-06-09T15:11:47.323Z,32.89
2023-06-09T15:14:14.075Z,32.91
2023-06-09T15:16:40.860Z,32.82
2023-06-09T15:19:07.706Z,32.73
2023-06-09T15:25:54.683Z,32.63
2023-06-09T15:28:22.327Z,32.54
2023-06-09T15:30:50.305Z,32.52
2023-06-09T15:37:30.679Z,32.40
2023-06-09T15:44:25.305Z,32.13
2023-06-09T15:46:52.191Z,31.96
2023-06-09T15:49:19.139Z,31.79
2023-06-09T15:51:45.876Z,31.61
2023-06-09T15:54:12.793Z,31.49
2023-06-09T15:56:39.685Z,31.42
2023-06-09T15:59:06.751Z,31.37
2023-06-09T16:01:33.578Z,31.28
2023-06-09T16:04:00.449Z,31.19
2023-06-09T16:06:27.345Z,31.10
2023-06-09T16:08:54.083Z,31.01
2023-06-09T16:11:20.877Z,30.90
2023-06-09T16:13:47.957Z,30.78
2023-06-09T16:16:15.220Z,30.72
2023-06-09T16:18:43.396Z,30.68
2023-06-09T16:25:25.865Z,30.53
2023-06-09T16:27:52.976Z,30.47
2023-06-09T16:30:19.706Z,30.36
2023-06-09T16:32:47.408Z,30.27
2023-06-09T16:35:14.438Z,30.20
2023-06-09T16:37:41.645Z,30.10
2023-06-09T16:40:08.867Z,29.97
2023-06-09T16:46:57.249Z,29.70
2023-06-09T16:49:24.106Z,29.62
2023-06-09T16:56:10.801Z,29.42
2023-06-09T16:58:37.616Z,29.36
2023-06-09T17:01:04.360Z,29.29
2023-06-09T17:03:31.307Z,29.22
2023-06-09T17:05:58.097Z,29.16
2023-06-09T17:12:45.827Z,29.01
2023-06-09T17:15:13.016Z,28.97
2023-06-09T17:17:39.929Z,28.91
2023-06-09T17:20:07.611Z,28.84
2023-06-09T17:22:34.428Z,28.80
2023-06-09T17:25:01.754Z,28.77
2023-06-09T17:27:28.468Z,28.74
2023-06-09T17:29:55.401Z,28.72
2023-06-09T17:32:22.399Z,28.69
2023-06-09T17:34:49.152Z,28.64
2023-06-09T17:37:16.060Z,28.62
2023-06-09T17:39:43.463Z,28.62
2023-06-09T17:42:11.729Z,28.60
2023-06-09T17:44:38.716Z,28.58
2023-06-09T17:47:06.972Z,28.56
2023-06-09T17:49:34.802Z,28.51
2023-06-09T17:52:01.862Z,28.48
2023-06-09T17:54:32.162Z,28.44
2023-06-09T18:01:19.475Z,28.34
2023-06-09T18:03:46.460Z,28.27
2023-06-09T18:06:13.422Z,28.22
2023-06-09T18:08:40.847Z,28.17
2023-06-09T18:11:07.719Z,28.12
2023-06-09T18:13:34.550Z,28.09
2023-06-09T18:16:01.721Z,28.03
2023-06-09T18:18:28.678Z,27.97
2023-06-09T18:20:55.570Z,27.91
2023-06-09T18:23:22.438Z,27.83
2023-06-09T18:25:52.764Z,27.77
2023-06-09T18:32:39.881Z,27.63
2023-06-09T18:35:07.762Z,27.60
2023-06-09T18:37:34.808Z,27.58
2023-06-09T18:44:20.192Z,27.42
2023-06-09T18:46:47.445Z,27.32
2023-06-09T18:49:14.300Z,27.13
2023-06-09T18:51:41.645Z,26.97
2023-06-09T18:54:08.552Z,26.84
2023-06-09T18:56:36.386Z,26.72
2023-06-09T18:59:03.296Z,26.60
2023-06-09T19:01:30.643Z,26.55
2023-06-09T19:03:57.951Z,26.52
2023-06-09T19:06:25.192Z,26.47
2023-06-09T19:08:52.007Z,26.40
2023-06-09T19:11:18.986Z,26.35
2023-06-09T19:13:46.329Z,26.30
2023-06-09T19:16:13.145Z,26.26
2023-06-09T19:18:40.081Z,26.24
2023-06-09T19:21:07.071Z,26.20
2023-06-09T19:23:34.043Z,26.15
2023-06-09T19:26:02.033Z,26.15
2023-06-09T19:28:28.903Z,26.13
2023-06-09T19:30:55.800Z,26.07
2023-06-09T19:33:23.029Z,26.01
2023-06-09T19:35:49.970Z,25.97
2023-06-09T19:38:17.055Z,25.93
2023-06-09T19:40:44.076Z,25.89
2023-06-09T19:43:11.117Z,25.84
2023-06-09T19:45:37.871Z,25.80
2023-06-09T19:48:05.053Z,25.76
2023-06-09T19:50:36.299Z,25.68
2023-06-09T19:53:03.408Z,25.56
2023-06-09T19:55:30.355Z,25.45
2023-06-09T19:57:57.208Z,25.38
2023-06-09T20:00:24.169Z,25.37
2023-06-09T20:02:50.992Z,25.32
2023-06-09T20:05:17.907Z,25.28
2023-06-09T20:12:06.533Z,25.18
2023-06-09T20:18:46.846Z,25.03
2023-06-09T20:21:13.721Z,25.01
2023-06-09T20:23:43.617Z,24.95
2023-06-09T20:26:11.746Z,24.87
2023-06-09T20:28:38.933Z,24.80
2023-06-09T20:31:06.685Z,24.77
2023-06-09T20:33:42.465Z,24.70
2023-06-09T20:36:10.362Z,24.61
2023-06-09T20:42:57.917Z,24.57
2023-06-09T20:49:32.041Z,24.51
2023-06-09T20:51:58.861Z,24.48
2023-06-09T20:58:46.193Z,24.36
2023-06-09T21:05:27.724Z,24.32
2023-06-09T21:07:55.454Z,24.31
2023-06-09T21:10:24.491Z,24.28
2023-06-09T21:12:52.421Z,24.24
2023-06-09T21:15:19.161Z,24.20
2023-06-09T21:21:59.835Z,24.16
2023-06-09T21:24:26.710Z,24.10
2023-06-09T21:26:53.734Z,24.05
2023-06-09T21:29:20.681Z,24.00
2023-06-09T21:31:47.617Z,23.95
2023-06-09T21:34:14.442Z,23.92
2023-06-09T21:36:41.221Z,23.90
2023-06-09T21:43:26.960Z,23.79
2023-06-09T21:45:53.704Z,23.79
2023-06-09T21:48:20.548Z,23.83
2023-06-09T21:50:47.642Z,23.89
2023-06-09T21:57:35.213Z,23.95
2023-06-09T22:00:02.463Z,23.96
2023-06-09T22:02:32.022Z,23.96
2023-06-09T22:04:58.872Z,23.95
2023-06-09T22:07:25.668Z,23.93
2023-06-09T22:09:52.702Z,23.88
2023-06-09T22:12:19.685Z,23.85
2023-06-09T22:14:47.445Z,23.84
2023-06-09T22:17:16.314Z,23.86
2023-06-09T22:19:43.381Z,23.91
2023-06-09T22:22:10.414Z,23.96
2023-06-09T22:24:37.151Z,24.00
2023-06-09T22:27:05.368Z,24.04
2023-06-09T22:29:32.302Z,24.06
2023-06-09T22:31:59.346Z,24.06
2023-06-09T22:34:26.352Z,24.06
2023-06-09T22:36:53.086Z,24.05
2023-06-09T22:39:20.270Z,24.06
2023-06-09T22:41:47.076Z,24.07
2023-06-09T22:44:14.116Z,24.12
2023-06-09T22:46:41.042Z,24.16
2023-06-09T22:49:08.943Z,24.20
2023-06-09T22:51:36.109Z,24.22
2023-06-09T22:54:04.577Z,24.24
2023-06-09T22:56:31.955Z,24.24
2023-06-09T22:58:58.980Z,24.24
2023-06-09T23:01:27.766Z,24.24
2023-06-09T23:03:55.022Z,24.26
2023-06-09T23:06:34.806Z,24.27
2023-06-09T23:09:01.540Z,24.30
2023-06-09T23:11:29.934Z,24.31
2023-06-09T23:13:56.942Z,24.29
2023-06-09T23:16:23.820Z,24.29
2023-06-09T23:18:51.227Z,24.28
2023-06-09T23:21:19.531Z,24.28
2023-06-09T23:23:50.888Z,24.28
2023-06-09T23:26:18.126Z,24.27
2023-06-09T23:28:45.079Z,24.26
2023-06-09T23:31:12.022Z,24.27
2023-06-09T23:33:40.084Z,24.26
2023-06-09T23:36:07.260Z,24.20
2023-06-09T23:38:33.987Z,24.10
2023-06-09T23:41:00.860Z,24.01
2023-06-09T23:43:27.608Z,23.92
2023-06-09T23:45:54.468Z,23.88
2023-06-09T23:48:23.054Z,23.89
2023-06-09T23:50:50.866Z,23.90
2023-06-09T23:53:22.407Z,23.91
2023-06-09T23:55:50.196Z,23.92
2023-06-09T23:58:18.822Z,23.86
